createdAt,value
2022-11-15T00:04:47.054Z,96669.00
2022-11-15T00:10:07.749Z,96664.00
2022-11-15T00:15:26.950Z,96660.00
2022-11-15T00:20:46.529Z,96658.00
2022-11-15T00:26:06.549Z,96679.00
2022-11-15T00:31:25.935Z,96673.00
2022-11-15T00:36:45.545Z,96671.00
2022-11-15T00:42:04.857Z,96674.00
2022-11-15T00:47:24.298Z,96673.00
2022-11-15T00:52:44.180Z,96663.00
2022-11-15T00:58:03.659Z,96662.00
2022-11-15T01:03:23.066Z,96654.00
2022-11-15T01:08:42.770Z,96664.00
2022-11-15T01:14:03.040Z,96656.00
2022-11-15T01:19:22.338Z,96661.00
2022-11-15T01:24:41.880Z,96648.00
2022-11-15T01:30:01.259Z,96640.00
2022-11-15T01:35:21.732Z,96643.00
2022-11-15T01:40:41.441Z,96632.00
2022-11-15T01:46:25.386Z,96627.00
2022-11-15T01:51:45.378Z,96630.00
2022-11-15T01:57:09.811Z,96629.00
2022-11-15T02:02:29.671Z,96626.00
2022-11-15T02:07:49.810Z,96620.00
2022-11-15T02:13:09.694Z,96614.00
2022-11-15T02:18:35.190Z,96614.00
2022-11-15T02:27:00.751Z,96600.00
2022-11-15T02:34:00.191Z,96597.00
2022-11-15T02:40:59.323Z,96598.00
2022-11-15T02:46:54.828Z,96584.00
2022-11-15T02:52:19.865Z,96568.00
2022-11-15T02:57:58.396Z,96566.00
2022-11-15T03:05:02.980Z,96561.00
2022-11-15T03:10:36.461Z,96553.00
2022-11-15T03:16:23.126Z,96557.00
2022-11-15T03:21:44.619Z,96554.00
2022-11-15T03:27:07.426Z,96559.00
2022-11-15T03:32:33.327Z,96558.00
2022-11-15T03:39:51.195Z,96562.00
2022-11-15T03:45:22.052Z,96563.00
2022-11-15T03:50:44.122Z,96554.00
2022-11-15T03:56:03.547Z,96553.00
2022-11-15T04:01:23.310Z,96559.00
2022-11-15T04:06:43.106Z,96566.00
2022-11-15T04:12:03.178Z,96572.00
2022-11-15T04:17:22.557Z,96571.00
2022-11-15T04:23:00.853Z,96568.00
2022-11-15T04:28:20.354Z,96565.00
2022-11-15T04:33:39.793Z,96552.00
2022-11-15T04:38:59.256Z,96554.00
2022-11-15T04:44:18.855Z,96546.00
2022-11-15T04:49:38.430Z,96544.00
2022-11-15T04:54:57.930Z,96536.00
2022-11-15T05:00:17.722Z,96523.00
2022-11-15T05:05:37.309Z,96516.00
2022-11-15T05:10:56.967Z,96519.00
2022-11-15T05:16:16.384Z,96517.00
2022-11-15T05:21:36.602Z,96528.00
2022-11-15T05:26:55.903Z,96532.00
2022-11-15T05:32:17.035Z,96538.00
2022-11-15T05:37:36.594Z,96520.00
2022-11-15T05:42:56.888Z,96519.00
2022-11-15T05:48:16.623Z,96519.00
2022-11-15T05:53:37.432Z,96505.00
2022-11-15T05:58:59.994Z,96509.00
2022-11-15T06:04:20.081Z,96513.00
2022-11-15T06:09:39.602Z,96514.00
2022-11-15T06:14:59.249Z,96528.00
2022-11-15T06:20:18.582Z,96524.00
2022-11-15T06:25:38.124Z,96522.00
2022-11-15T06:31:06.301Z,96529.00
2022-11-15T06:36:25.852Z,96530.00
2022-11-15T06:41:45.506Z,96536.00
2022-11-15T06:47:05.100Z,96520.00
2022-11-15T06:52:24.621Z,96532.00
2022-11-15T06:57:49.026Z,96527.00
2022-11-15T07:03:08.685Z,96524.00
2022-11-15T07:08:29.510Z,96521.00
2022-11-15T07:13:48.788Z,96521.00
2022-11-15T07:19:09.556Z,96521.00
2022-11-15T07:24:29.711Z,96535.00
2022-11-15T07:29:49.511Z,96541.00
2022-11-15T07:35:09.031Z,96536.00
2022-11-15T07:40:31.978Z,96545.00
2022-11-15T07:45:55.978Z,96538.00
2022-11-15T07:51:18.957Z,96528.00
2022-11-15T07:56:39.348Z,96527.00
2022-11-15T08:01:59.188Z,96535.00
2022-11-15T08:07:18.823Z,96537.00
2022-11-15T08:12:38.464Z,96535.00
2022-11-15T08:18:00.050Z,96530.00
2022-11-15T08:23:20.655Z,96535.00
2022-11-15T08:28:40.457Z,96539.00
2022-11-15T08:34:00.980Z,96546.00
2022-11-15T08:39:20.359Z,96545.00
2022-11-15T08:44:39.854Z,96545.00
2022-11-15T08:49:59.367Z,96539.00
2022-11-15T08:55:19.063Z,96530.00
2022-11-15T09:00:38.650Z,96527.00
2022-11-15T09:06:00.809Z,96533.00
2022-11-15T09:11:22.116Z,96519.00
2022-11-15T09:16:41.808Z,96506.00
2022-11-15T09:22:01.603Z,96508.00
2022-11-15T09:27:20.801Z,96499.00
2022-11-15T09:32:40.366Z,96500.00
2022-11-15T09:37:59.822Z,96509.00
2022-11-15T09:45:01.930Z,96509.00
2022-11-15T09:50:34.967Z,96518.00
2022-11-15T09:55:49.650Z,96509.00
2022-11-15T10:00:53.194Z,96503.00
2022-11-15T10:05:58.305Z,96504.00
2022-11-15T10:11:36.120Z,96490.00
2022-11-15T10:20:06.361Z,96477.00
2022-11-15T10:25:18.988Z,96466.00
2022-11-15T10:30:24.004Z,96459.00
2022-11-15T10:35:30.853Z,96459.00
2022-11-15T10:40:31.603Z,96448.00
2022-11-15T10:45:34.564Z,96428.00
2022-11-15T10:50:35.506Z,96426.00
2022-11-15T10:55:47.757Z,96417.00
2022-11-15T11:00:48.712Z,96404.00
2022-11-15T11:06:04.507Z,96405.00
2022-11-15T11:11:07.320Z,96399.00
2022-11-15T11:16:48.421Z,96398.00
2022-11-15T11:25:03.925Z,96394.00
2022-11-15T11:30:08.822Z,96397.00
2022-11-15T11:36:40.103Z,96386.00
2022-11-15T11:42:03.312Z,96382.00
2022-11-15T11:47:25.336Z,96375.00
2022-11-15T11:52:34.913Z,96363.00
2022-11-15T12:00:19.009Z,96359.00
2022-11-15T12:12:27.577Z,96369.00
2022-11-15T12:17:32.211Z,96343.00
2022-11-15T12:22:46.008Z,96335.00
2022-11-15T12:28:17.122Z,96331.00
2022-11-15T12:33:40.520Z,96319.00
2022-11-15T12:38:56.054Z,96313.00
2022-11-15T12:43:59.322Z,96300.00
2022-11-15T12:52:40.195Z,96288.00
2022-11-15T12:57:41.923Z,96284.00
2022-11-15T13:02:45.527Z,96263.00
2022-11-15T13:08:04.149Z,96257.00
2022-11-15T13:13:09.550Z,96238.00
2022-11-15T13:18:29.601Z,96247.00
2022-11-15T13:23:31.263Z,96239.00
2022-11-15T13:28:42.509Z,96236.00
2022-11-15T13:33:43.524Z,96227.00
2022-11-15T13:38:44.284Z,96229.00
2022-11-15T13:43:45.045Z,96217.00
2022-11-15T13:48:51.823Z,96206.00
2022-11-15T13:53:58.421Z,96197.00
2022-11-15T13:58:59.277Z,96178.00
2022-11-15T14:04:01.592Z,96180.00
2022-11-15T14:10:21.835Z,96174.00
2022-11-15T14:15:35.626Z,96167.00
2022-11-15T14:20:39.461Z,96147.00
2022-11-15T14:25:40.301Z,96138.00
2022-11-15T14:30:43.046Z,96126.00
2022-11-15T14:35:44.147Z,96124.00
2022-11-15T14:40:45.241Z,96112.00
2022-11-15T14:45:45.989Z,96099.00
2022-11-15T14:50:46.760Z,96101.00
2022-11-15T14:55:47.839Z,96090.00
2022-11-15T15:00:48.707Z,96090.00
2022-11-15T15:05:49.602Z,96080.00
2022-11-15T15:10:50.537Z,96083.00
2022-11-15T15:15:54.649Z,96085.00
2022-11-15T15:21:02.659Z,96084.00
2022-11-15T15:26:03.737Z,96079.00
2022-11-15T15:31:05.327Z,96074.00
2022-11-15T15:36:11.458Z,96065.00
2022-11-15T15:41:14.406Z,96055.00
2022-11-15T15:46:17.789Z,96056.00
2022-11-15T15:51:20.745Z,96051.00
2022-11-15T15:56:22.130Z,96053.00
2022-11-15T16:01:23.096Z,96048.00
2022-11-15T16:06:39.736Z,96039.00
2022-11-15T16:11:41.763Z,96034.00
2022-11-15T16:16:42.581Z,96033.00
2022-11-15T16:21:43.487Z,96032.00
2022-11-15T16:26:45.684Z,96030.00
2022-11-15T16:31:46.448Z,96028.00
2022-11-15T16:36:48.024Z,96022.00
2022-11-15T16:41:48.842Z,96015.00
2022-11-15T16:46:51.160Z,96011.00
2022-11-15T16:51:51.899Z,96013.00
2022-11-15T16:56:53.144Z,96013.00
2022-11-15T17:01:53.909Z,96009.00
2022-11-15T17:06:54.882Z,96015.00
2022-11-15T17:11:55.907Z,96009.00
2022-11-15T17:16:56.739Z,96009.00
2022-11-15T17:21:57.612Z,95994.00
2022-11-15T17:26:58.546Z,96000.00
2022-11-15T17:31:59.371Z,95990.00
2022-11-15T17:37:00.279Z,95998.00
2022-11-15T17:42:00.997Z,95981.00
2022-11-15T17:47:02.103Z,95976.00
2022-11-15T17:52:02.873Z,95985.00
2022-11-15T17:57:03.960Z,95972.00
2022-11-15T18:02:05.459Z,95967.00
2022-11-15T18:07:06.296Z,95971.00
2022-11-15T18:12:07.102Z,95959.00
2022-11-15T18:17:07.858Z,95950.00
2022-11-15T18:22:09.454Z,95949.00
2022-11-15T18:27:10.638Z,95953.00
2022-11-15T18:32:14.292Z,95948.00
2022-11-15T18:37:15.070Z,95944.00
2022-11-15T18:42:15.883Z,95949.00
2022-11-15T18:47:16.663Z,95943.00
2022-11-15T18:52:17.394Z,95932.00
2022-11-15T18:57:18.482Z,95939.00
2022-11-15T19:02:19.480Z,95933.00
2022-11-15T19:07:20.588Z,95924.00
2022-11-15T19:12:21.611Z,95922.00
2022-11-15T19:17:22.349Z,95917.00
2022-11-15T19:22:23.137Z,95905.00
2022-11-15T19:27:23.983Z,95907.00
2022-11-15T19:32:24.700Z,95909.00
2022-11-15T19:37:25.482Z,95897.00
2022-11-15T19:42:26.214Z,95897.00
2022-11-15T19:47:27.743Z,95887.00
2022-11-15T19:52:28.482Z,95877.00
2022-11-15T19:57:29.613Z,95875.00
2022-11-15T20:02:30.324Z,95876.00
2022-11-15T20:07:31.369Z,95870.00
2022-11-15T20:12:33.447Z,95862.00
2022-11-15T20:17:34.668Z,95872.00
2022-11-15T20:22:35.479Z,95856.00
2022-11-15T20:27:36.356Z,95852.00
2022-11-15T20:32:37.093Z,95842.00
2022-11-15T20:37:37.910Z,95840.00
2022-11-15T20:42:38.864Z,95834.00
2022-11-15T20:47:39.627Z,95823.00
2022-11-15T20:52:40.396Z,95828.00
2022-11-15T20:57:41.235Z,95813.00
2022-11-15T21:02:42.032Z,95820.00
2022-11-15T21:07:43.591Z,95823.00
2022-11-15T21:12:44.553Z,95805.00
2022-11-15T21:17:45.338Z,95808.00
2022-11-15T21:22:46.246Z,95796.00
2022-11-15T21:27:47.107Z,95798.00
2022-11-15T21:32:47.859Z,95790.00
2022-11-15T21:37:54.958Z,95786.00
2022-11-15T21:42:57.454Z,95784.00
2022-11-15T21:47:58.171Z,95775.00
2022-11-15T21:52:59.157Z,95770.00
2022-11-15T21:57:59.969Z,95764.00
2022-11-15T22:03:00.836Z,95765.00
2022-11-15T22:08:01.608Z,95760.00
2022-11-15T22:13:02.439Z,95753.00
2022-11-15T22:18:03.771Z,95739.00
2022-11-15T22:23:05.100Z,95739.00
2022-11-15T22:28:06.997Z,95741.00
2022-11-15T22:33:07.836Z,95736.00
2022-11-15T22:38:09.342Z,95725.00
2022-11-15T22:43:15.651Z,95716.00
2022-11-15T22:48:17.168Z,95725.00
2022-11-15T22:53:18.694Z,95717.00
2022-11-15T22:58:21.279Z,95715.00
2022-11-15T23:03:23.397Z,95708.00
2022-11-15T23:08:24.311Z,95709.00
2022-11-15T23:13:28.221Z,95699.00
2022-11-15T23:18:32.151Z,95698.00
2022-11-15T23:23:34.458Z,95701.00
2022-11-15T23:28:36.069Z,95701.00
2022-11-15T23:33:56.672Z,95687.00
2022-11-15T23:38:57.883Z,95689.00
2022-11-15T23:43:58.871Z,95694.00
2022-11-15T23:48:59.734Z,95691.00
2022-11-15T23:54:04.310Z,95680.00
2022-11-15T23:59:05.495Z,95687.00
